Time;durP1;ratioP1;P1;durP2;ratioP2;P2;SDS_P1;SDS_P2;PMS_P1;PMS_P2;Temp;Humidity;BMP_temperature;BMP_pressure;BME280_temperature;BME280_humidity;BME280_pressure;Samples;Min_cycle;Max_cycle;Signal;HPM_P1;HPM_P2
2023/04/01 00:01:05;;;;;;;56.58;37.55;;;27.80;99.90;;;;;;5032989;28;20480;-68
2023/04/01 00:03:33;;;;;;;49.15;34.33;;;27.90;99.90;;;;;;5032793;28;20428;-67
2023/04/01 00:06:00;;;;;;;55.55;35.58;;;27.90;99.90;;;;;;5032655;28;20021;-68
2023/04/01 00:08:27;;;;;;;61.30;38.25;;;28.00;99.90;;;;;;5032588;28;20117;-68
2023/04/01 00:10:55;;;;;;;50.35;36.25;;;28.00;99.90;;;;;;5032939;28;20544;-68
2023/04/01 00:13:22;;;;;;;47.88;33.90;;;28.00;99.90;;;;;;5032614;28;20092;-67
2023/04/01 00:15:48;;;;;;;53.28;34.78;;;28.00;99.90;;;;;;5032789;28;20051;-68
2023/04/01 00:18:15;;;;;;;58.53;34.83;;;28.10;99.90;;;;;;5032956;28;20395;-68
2023/04/01 00:20:48;;;;;;;56.65;35.45;;;28.10;99.90;;;;;;5032557;28;20387;-68
2023/04/01 00:23:15;;;;;;;52.45;35.25;;;28.20;99.90;;;;;;5032622;28;20109;-69
2023/04/01 00:25:42;;;;;;;54.50;36.95;;;28.20;99.90;;;;;;5029044;28;20025;-69
2023/04/01 00:28:09;;;;;;;54.75;36.60;;;28.20;99.90;;;;;;5006124;28;20031;-69
2023/04/01 00:30:36;;;;;;;46.10;32.65;;;28.20;99.90;;;;;;4993281;28;20030;-68
2023/04/01 00:33:04;;;;;;;50.92;33.78;;;28.30;99.90;;;;;;4993364;28;20033;-68
2023/04/01 00:35:32;;;;;;;52.78;35.72;;;28.40;99.90;;;;;;4996301;28;20469;-70
2023/04/01 00:37:59;;;;;;;58.42;37.20;;;28.40;99.90;;;;;;5032408;28;20060;-68
2023/04/01 00:40:28;;;;;;;60.03;35.05;;;28.40;99.90;;;;;;5032711;28;20025;-68
2023/04/01 00:42:55;;;;;;;54.83;37.25;;;28.40;99.90;;;;;;5032818;28;20025;-68
2023/04/01 00:45:35;;;;;;;64.38;39.53;;;28.50;99.90;;;;;;5034403;28;20030;-68
2023/04/01 00:48:07;;;;;;;85.30;44.03;;;28.50;99.90;;;;;;5036185;28;20021;-68
2023/04/01 00:50:34;;;;;;;;;;;28.50;99.90;;;;;;5036658;28;20018;-69
2023/04/01 00:53:02;;;;;;;82.28;49.22;;;28.50;99.90;;;;;;5036491;28;19905;-67
2023/04/01 00:55:32;;;;;;;69.80;44.92;;;28.50;99.90;;;;;;5035945;28;20025;-68
2023/04/01 00:58:00;;;;;;;106.90;68.88;;;28.60;99.90;;;;;;5035896;28;20049;-69
2023/04/01 01:00:26;;;;;;;85.50;54.45;;;28.60;99.90;;;;;;5035484;28;20028;-68
2023/04/01 01:02:53;;;;;;;160.52;104.70;;;28.60;99.90;;;;;;5028116;28;20030;-67
2023/04/01 01:05:30;;;;;;;360.90;237.05;;;28.60;99.90;;;;;;5014310;28;20460;-67
2023/04/01 01:07:57;;;;;;;195.23;134.48;;;28.60;99.90;;;;;;5014322;28;20061;-68
2023/04/01 01:10:31;;;;;;;214.60;122.38;;;28.60;99.90;;;;;;5013441;28;20028;-68
2023/04/01 01:13:07;;;;;;;92.93;52.35;;;28.60;99.90;;;;;;5015215;28;20073;-67
2023/04/01 01:15:54;;;;;;;85.68;51.22;;;28.50;99.90;;;;;;5015300;28;20415;-68
2023/04/01 01:18:20;;;;;;;94.45;59.17;;;28.60;99.90;;;;;;5015321;28;20030;-68
2023/04/01 01:20:57;;;;;;;434.85;231.15;;;28.50;99.90;;;;;;5015435;28;20037;-68
2023/04/01 01:23:24;;;;;;;329.63;188.23;;;28.60;99.90;;;;;;5015643;28;20056;-68
2023/04/01 01:26:29;;;;;;;208.73;116.40;;;28.60;99.90;;;;;;5015512;28;20022;-67
2023/04/01 01:29:26;;;;;;;73.63;47.55;;;28.80;99.90;;;;;;5015554;28;20034;-67
2023/04/01 01:31:54;;;;;;;182.35;108.20;;;28.70;99.90;;;;;;5015571;28;20084;-67
2023/04/01 01:34:50;;;;;;;55.95;41.30;;;28.70;99.90;;;;;;5015215;28;20042;-69
2023/04/01 01:37:19;;;;;;;113.38;65.22;;;28.70;99.90;;;;;;5015208;28;20551;-68
2023/04/01 01:39:51;;;;;;;93.32;53.65;;;28.70;99.90;;;;;;5015178;28;20515;-68
2023/04/01 01:42:21;;;;;;;100.78;55.83;;;28.80;99.90;;;;;;5015400;28;20045;-68
2023/04/01 01:44:50;;;;;;;47.97;30.15;;;28.90;99.90;;;;;;5015422;28;20049;-72
2023/04/01 01:47:19;;;;;;;84.47;45.17;;;28.90;99.90;;;;;;5015249;28;20675;-71
2023/04/01 01:49:46;;;;;;;63.78;36.90;;;28.90;99.90;;;;;;5015047;28;20029;-72
2023/04/01 01:52:13;;;;;;;85.93;44.65;;;29.00;99.90;;;;;;5015019;28;20021;-73
2023/04/01 01:54:51;;;;;;;49.72;28.90;;;29.00;99.90;;;;;;5014975;28;20018;-72
2023/04/01 01:57:23;;;;;;;32.67;22.65;;;29.00;99.90;;;;;;5015083;28;20477;-71
2023/04/01 01:59:51;;;;;;;36.65;22.33;;;29.00;99.90;;;;;;5014940;28;20108;-73
2023/04/01 02:02:19;;;;;;;46.00;24.02;;;29.00;99.90;;;;;;5014918;28;20022;-71
2023/04/01 02:04:47;;;;;;;35.47;22.42;;;29.00;99.90;;;;;;5014937;28;20084;-73
2023/04/01 02:07:27;;;;;;;42.38;24.10;;;29.00;99.90;;;;;;5014778;28;20503;-76
2023/04/01 02:09:54;;;;;;;23.98;18.92;;;29.10;99.90;;;;;;5014942;28;20093;-73
2023/04/01 02:12:23;;;;;;;29.55;21.02;;;29.10;99.90;;;;;;5014558;28;20045;-73
2023/04/01 02:15:13;;;;;;;41.15;24.50;;;29.10;99.90;;;;;;5014949;28;20491;-70
2023/04/01 02:17:45;;;;;;;52.83;27.00;;;29.10;99.90;;;;;;5014622;28;20037;-70
2023/04/01 02:20:23;;;;;;;;;;;29.10;99.90;;;;;;5015197;28;20488;-70
2023/04/01 02:22:55;;;;;;;41.63;23.95;;;29.10;99.90;;;;;;5014647;28;20323;-70
2023/04/01 02:25:26;;;;;;;33.13;22.02;;;29.20;99.90;;;;;;5014627;28;20436;-70
2023/04/01 02:27:55;;;;;;;38.03;24.27;;;29.20;99.90;;;;;;5014605;28;20041;-69
2023/04/01 02:30:22;;;;;;;51.15;27.33;;;29.20;99.90;;;;;;5014385;28;20030;-69
2023/04/01 02:32:49;;;;;;;89.93;42.38;;;29.20;99.90;;;;;;5014662;28;20030;-69
2023/04/01 02:35:17;;;;;;;85.18;38.67;;;29.20;99.90;;;;;;5012704;28;20030;-69
2023/04/01 02:37:48;;;;;;;70.47;31.85;;;29.30;99.90;;;;;;5004247;28;20034;-70
2023/04/01 02:40:16;;;;;;;43.78;23.90;;;29.40;99.90;;;;;;4994721;28;20579;-71
2023/04/01 02:42:43;;;;;;;39.38;22.58;;;29.50;99.90;;;;;;4994636;28;20465;-72
2023/04/01 02:45:11;;;;;;;77.80;31.63;;;29.50;99.90;;;;;;4994674;28;20037;-70
2023/04/01 02:47:37;;;;;;;23.00;16.02;;;29.60;99.90;;;;;;5023056;28;20029;-71
2023/04/01 02:50:05;;;;;;;74.45;27.77;;;29.50;99.90;;;;;;5020854;28;20137;-69
2023/04/01 02:52:31;;;;;;;116.38;40.58;;;29.60;99.90;;;;;;5022590;28;20033;-74
2023/04/01 02:54:58;;;;;;;116.25;34.50;;;29.60;99.90;;;;;;5024031;28;20096;-74
2023/04/01 02:57:25;;;;;;;31.27;20.25;;;29.60;99.90;;;;;;5022283;28;20025;-73
2023/04/01 02:59:52;;;;;;;103.32;36.58;;;29.60;99.90;;;;;;5023494;28;20019;-73
2023/04/01 03:02:19;;;;;;;356.00;87.70;;;29.70;99.90;;;;;;5024018;28;20014;-74
2023/04/01 03:04:46;;;;;;;142.80;45.33;;;29.70;99.90;;;;;;5021961;28;20376;-73
2023/04/01 03:07:12;;;;;;;93.15;37.63;;;29.80;99.90;;;;;;5005424;28;20045;-76
2023/04/01 03:09:39;;;;;;;1027.90;294.38;;;29.80;99.90;;;;;;5023659;28;20017;-70
2023/04/01 03:12:07;;;;;;;163.98;50.25;;;29.90;99.90;;;;;;5021991;28;20442;-70
2023/04/01 03:14:33;;;;;;;326.52;102.65;;;29.90;99.90;;;;;;5024599;28;20112;-70
2023/04/01 03:17:00;;;;;;;764.65;300.35;;;30.00;99.90;;;;;;5033509;28;20064;-71
2023/04/01 03:19:26;;;;;;;382.58;143.52;;;30.00;99.90;;;;;;5033475;28;20045;-71
2023/04/01 03:21:53;;;;;;;46.05;24.63;;;30.00;99.90;;;;;;5033282;28;20048;-72
2023/04/01 03:24:20;;;;;;;252.38;121.07;;;30.10;99.90;;;;;;5033371;28;20018;-71
2023/04/01 03:26:47;;;;;;;105.38;53.10;;;30.00;99.90;;;;;;5015629;28;20383;-70
2023/04/01 03:29:15;;;;;;;108.78;52.13;;;30.00;99.90;;;;;;5033320;28;20025;-70
2023/04/01 03:31:42;;;;;;;53.83;31.58;;;30.10;99.90;;;;;;5033272;28;20025;-70
2023/04/01 03:34:08;;;;;;;29.77;19.52;;;30.00;99.90;;;;;;5033366;28;20021;-69
2023/04/01 03:36:35;;;;;;;46.72;26.05;;;30.10;99.90;;;;;;5033017;28;20021;-72
2023/04/01 03:39:03;;;;;;;22.40;15.27;;;30.20;99.90;;;;;;5032996;28;20032;-73
2023/04/01 03:41:30;;;;;;;66.32;34.63;;;30.20;99.90;;;;;;5033109;28;20025;-72
2023/04/01 03:43:57;;;;;;;41.80;27.95;;;30.20;99.90;;;;;;5032896;28;20049;-71
2023/04/01 03:46:23;;;;;;;108.80;62.55;;;30.30;99.90;;;;;;5033081;28;20021;-72
2023/04/01 03:48:50;;;;;;;50.58;29.50;;;30.30;99.90;;;;;;5033105;28;20357;-71
2023/04/01 03:51:16;;;;;;;32.13;19.63;;;30.30;99.90;;;;;;5032850;28;20078;-72
2023/04/01 03:53:43;;;;;;;72.35;33.33;;;30.40;99.90;;;;;;5032922;28;20021;-71
2023/04/01 03:56:10;;;;;;;30.50;19.10;;;30.40;99.90;;;;;;5033003;28;20084;-73
2023/04/01 03:58:38;;;;;;;69.13;31.05;;;30.40;99.90;;;;;;5032731;28;20023;-74
2023/04/01 04:01:14;;;;;;;73.53;31.67;;;30.40;99.90;;;;;;5032909;28;20109;-73
2023/04/01 04:03:41;;;;;;;35.20;20.13;;;30.30;99.90;;;;;;5032928;28;20254;-73
2023/04/01 04:06:12;;;;;;;104.55;39.75;;;30.30;99.90;;;;;;5031591;28;20018;-74
2023/04/01 04:08:39;;;;;;;117.18;47.45;;;30.30;99.90;;;;;;5022576;28;20022;-72
2023/04/01 04:11:06;;;;;;;149.05;56.50;;;30.40;99.90;;;;;;5018430;28;20091;-74
2023/04/01 04:13:32;;;;;;;91.18;40.85;;;30.50;99.90;;;;;;5022847;28;20042;-74
2023/04/01 04:15:59;;;;;;;130.65;49.95;;;30.60;99.90;;;;;;5018096;28;20021;-73
2023/04/01 04:18:25;;;;;;;26.73;16.70;;;30.60;99.90;;;;;;5022880;28;20029;-70
2023/04/01 04:20:52;;;;;;;18.63;15.02;;;30.60;99.90;;;;;;5024074;28;20539;-70
2023/04/01 04:23:19;;;;;;;21.65;15.77;;;30.70;99.90;;;;;;5025869;28;20066;-72
2023/04/01 04:26:06;;;;;;;27.05;17.40;;;30.70;99.90;;;;;;5019958;28;20096;-74
2023/04/01 04:28:34;;;;;;;51.72;24.80;;;30.80;99.90;;;;;;5014318;28;20120;-75
2023/04/01 04:31:01;;;;;;;68.90;32.80;;;30.80;99.90;;;;;;5017779;28;20029;-71
2023/04/01 04:33:28;;;;;;;38.88;21.25;;;30.80;99.90;;;;;;5018091;28;20033;-70
2023/04/01 04:35:57;;;;;;;40.13;23.13;;;30.80;99.90;;;;;;5022787;28;20018;-71
2023/04/01 04:38:24;;;;;;;78.20;40.08;;;30.90;99.90;;;;;;5024745;28;20100;-70
2023/04/01 04:40:51;;;;;;;100.00;47.08;;;30.90;99.90;;;;;;5019948;28;20017;-71
2023/04/01 04:43:18;;;;;;;43.47;26.45;;;31.00;99.90;;;;;;5021766;28;20025;-71
2023/04/01 04:45:45;;;;;;;31.65;20.38;;;31.00;99.90;;;;;;5022973;28;20057;-70
2023/04/01 04:48:18;;;;;;;37.83;21.92;;;31.00;99.90;;;;;;5021485;28;20105;-68
2023/04/01 04:50:46;;;;;;;32.90;21.35;;;31.10;99.90;;;;;;5014784;28;20460;-68
2023/04/01 04:53:13;;;;;;;24.65;17.15;;;31.10;99.90;;;;;;5023272;28;20108;-68
2023/04/01 04:55:46;;;;;;;36.10;20.88;;;31.20;99.90;;;;;;5025528;28;20052;-68
2023/04/01 04:58:12;;;;;;;31.13;19.80;;;31.20;99.90;;;;;;5024933;28;20080;-67
2023/04/01 05:00:39;;;;;;;23.77;16.83;;;31.30;99.90;;;;;;5024609;28;20101;-68
2023/04/01 05:03:06;;;;;;;27.15;19.33;;;31.30;99.90;;;;;;5024054;28;20353;-69
2023/04/01 05:05:32;;;;;;;45.10;25.48;;;31.30;99.90;;;;;;5026745;28;20014;-68
2023/04/01 05:07:59;;;;;;;52.17;28.08;;;31.30;99.90;;;;;;5024629;28;20022;-68
2023/04/01 05:10:26;;;;;;;61.35;30.60;;;31.30;99.90;;;;;;5024345;28;20032;-69
2023/04/01 05:12:52;;;;;;;45.00;24.30;;;31.30;99.90;;;;;;5023580;28;20045;-70
2023/04/01 05:15:19;;;;;;;70.75;28.45;;;31.30;99.90;;;;;;5020809;28;20052;-68
2023/04/01 05:17:45;;;;;;;38.78;26.98;;;31.30;99.90;;;;;;5030187;28;20029;-69
2023/04/01 05:20:13;;;;;;;36.65;24.60;;;31.30;99.90;;;;;;5020797;28;20030;-67
2023/04/01 05:22:40;;;;;;;41.92;23.52;;;31.30;99.90;;;;;;5007133;28;20018;-68
2023/04/01 05:25:07;;;;;;;58.15;34.20;;;31.30;99.90;;;;;;5015738;28;20057;-69
2023/04/01 05:27:33;;;;;;;52.28;32.45;;;31.30;99.90;;;;;;5015416;28;20379;-69
2023/04/01 05:30:00;;;;;;;59.20;39.42;;;31.30;99.90;;;;;;5015475;28;20026;-69
2023/04/01 05:32:26;;;;;;;81.03;47.25;;;31.30;99.90;;;;;;5015092;28;20369;-70
2023/04/01 05:34:54;;;;;;;56.22;37.83;;;31.30;99.90;;;;;;5014966;28;20113;-70
2023/04/01 05:37:20;;;;;;;60.30;41.25;;;31.20;99.90;;;;;;5015147;28;20033;-70
2023/04/01 05:39:47;;;;;;;103.50;57.53;;;31.30;99.90;;;;;;5015153;28;20018;-69
2023/04/01 05:42:15;;;;;;;233.65;123.93;;;31.30;99.90;;;;;;5015161;28;20499;-69
2023/04/01 05:44:42;;;;;;;89.38;55.90;;;31.40;99.90;;;;;;5015084;28;20022;-70
2023/04/01 05:47:08;;;;;;;57.75;38.80;;;31.40;99.90;;;;;;5014991;28;20023;-69
2023/04/01 05:49:35;;;;;;;52.53;35.65;;;31.40;99.90;;;;;;5015200;28;20026;-69
2023/04/01 05:52:01;;;;;;;98.38;57.38;;;31.40;99.90;;;;;;5008665;28;20022;-68
2023/04/01 05:54:28;;;;;;;68.32;44.20;;;31.40;99.90;;;;;;5003815;28;20053;-67
2023/04/01 05:56:55;;;;;;;64.80;42.78;;;31.40;99.90;;;;;;5022290;28;20033;-67
2023/04/01 05:59:21;;;;;;;57.72;38.13;;;31.50;99.90;;;;;;5014949;28;20022;-69
2023/04/01 06:01:48;;;;;;;61.80;37.42;;;31.50;99.90;;;;;;5014868;28;20030;-69
2023/04/01 06:04:17;;;;;;;68.88;47.85;;;31.50;99.90;;;;;;5014957;28;20022;-70
2023/04/01 06:06:43;;;;;;;58.00;41.13;;;31.50;99.90;;;;;;5015230;28;20033;-69
2023/04/01 06:09:26;;;;;;;34.08;24.33;;;31.40;99.90;;;;;;5033952;28;20498;-70
2023/04/01 06:12:15;;;;;;;40.65;28.83;;;31.40;99.90;;;;;;5024330;28;20055;-68
2023/04/01 06:14:59;;;;;;;68.82;43.97;;;31.40;99.90;;;;;;5007366;28;20041;-69
2023/04/01 06:17:29;;;;;;;45.45;32.33;;;31.40;99.90;;;;;;5028651;28;20076;-69
2023/04/01 06:20:12;;;;;;;28.60;23.17;;;31.40;99.90;;;;;;5029126;28;20024;-69
2023/04/01 06:23:08;;;;;;;38.20;27.13;;;31.10;99.90;;;;;;5029234;28;20519;-69
2023/04/01 06:25:36;;;;;;;37.88;24.95;;;31.00;99.90;;;;;;5022503;28;20022;-69
2023/04/01 06:28:02;;;;;;;37.08;22.35;;;31.00;99.90;;;;;;5026700;28;20029;-69
2023/04/01 06:30:51;;;;;;;36.85;27.50;;;30.90;99.90;;;;;;5027123;28;20023;-69
2023/04/01 06:33:17;;;;;;;32.72;23.48;;;31.00;99.90;;;;;;5024377;28;20026;-69
2023/04/01 06:36:13;;;;;;;33.42;24.60;;;30.90;99.90;;;;;;5028753;28;20021;-65
2023/04/01 06:38:53;;;;;;;41.50;29.15;;;31.00;99.90;;;;;;5031489;28;20484;-65
2023/04/01 06:41:31;;;;;;;42.55;29.30;;;31.00;99.90;;;;;;5033206;28;20026;-65
2023/04/01 06:44:18;;;;;;;31.55;23.52;;;31.00;99.90;;;;;;5033109;28;20096;-69
2023/04/01 06:47:02;;;;;;;29.85;23.48;;;31.00;99.90;;;;;;5033697;28;20031;-70
2023/04/01 06:50:08;;;;;;;28.75;22.63;;;31.10;99.90;;;;;;5002466;28;20109;-69
2023/04/01 06:52:42;;;;;;;35.65;26.08;;;31.20;99.90;;;;;;5013959;28;20036;-69
2023/04/01 06:55:10;;;;;;;36.90;25.88;;;31.20;99.90;;;;;;5013977;28;20029;-70
2023/04/01 06:57:45;;;;;;;39.10;26.35;;;31.20;99.90;;;;;;5013659;28;20026;-70
2023/04/01 07:00:27;;;;;;;40.00;26.35;;;31.20;99.90;;;;;;5013921;28;20435;-70
2023/04/01 07:03:02;;;;;;;37.22;25.67;;;31.20;99.90;;;;;;4996004;28;20087;-69
2023/04/01 07:05:32;;;;;;;40.53;29.52;;;31.20;99.90;;;;;;5013748;28;20022;-70
2023/04/01 07:08:02;;;;;;;46.08;28.98;;;31.30;99.90;;;;;;5017626;28;20045;-70
2023/04/01 07:10:40;;;;;;;40.13;28.13;;;31.30;99.90;;;;;;5022306;28;20030;-71
2023/04/01 07:13:31;;;;;;;33.92;27.00;;;31.30;99.90;;;;;;5021474;28;20038;-69
2023/04/01 07:15:58;;;;;;;37.38;26.52;;;31.40;99.90;;;;;;5021898;28;20476;-69
2023/04/01 07:18:50;;;;;;;39.63;29.00;;;31.40;99.90;;;;;;5017449;28;20030;-70
2023/04/01 07:21:26;;;;;;;35.75;25.23;;;31.40;99.90;;;;;;5021570;28;20067;-71
2023/04/01 07:24:00;;;;;;;43.15;28.90;;;31.40;99.90;;;;;;5023092;28;20477;-70
2023/04/01 07:26:26;;;;;;;43.80;28.30;;;31.40;99.90;;;;;;5020343;28;20022;-72
2023/04/01 07:28:54;;;;;;;40.08;27.65;;;31.40;99.90;;;;;;5021870;28;20030;-71
2023/04/01 07:31:35;;;;;;;44.08;29.70;;;31.50;99.90;;;;;;5020838;28;20034;-70
2023/04/01 07:34:07;;;;;;;43.45;30.42;;;31.50;99.90;;;;;;5018277;28;20029;-71
2023/04/01 07:36:43;;;;;;;41.28;29.90;;;31.50;99.90;;;;;;5022525;28;20069;-71
2023/04/01 07:39:29;;;;;;;44.00;28.95;;;31.60;99.90;;;;;;5022932;28;20025;-69
2023/04/01 07:42:03;;;;;;;49.88;33.28;;;31.60;99.90;;;;;;5005645;28;20300;-69
2023/04/01 07:44:40;;;;;;;43.60;28.05;;;31.60;99.90;;;;;;5020076;28;20055;-69
2023/04/01 07:47:09;;;;;;;39.13;28.05;;;31.70;99.90;;;;;;5022749;28;20026;-69
2023/04/01 07:50:02;;;;;;;37.80;27.92;;;31.70;99.90;;;;;;5019694;28;20046;-68
2023/04/01 07:52:41;;;;;;;48.83;28.77;;;31.80;99.90;;;;;;5020782;28;20022;-70
2023/04/01 07:55:24;;;;;;;43.50;29.40;;;31.80;99.90;;;;;;5023870;28;20018;-70
2023/04/01 07:58:12;;;;;;;36.38;25.27;;;31.80;99.90;;;;;;5025009;28;20029;-69
2023/04/01 08:01:14;;;;;;;45.55;28.90;;;31.90;99.90;;;;;;5026574;28;20021;-69
2023/04/01 08:04:09;;;;;;;40.72;28.85;;;31.90;99.90;;;;;;5025203;28;20024;-70
2023/04/01 08:06:39;;;;;;;47.13;29.50;;;31.90;99.90;;;;;;5016489;28;20036;-70
2023/04/01 08:09:12;;;;;;;46.10;29.65;;;31.90;99.90;;;;;;5025582;28;20447;-69
2023/04/01 08:11:40;;;;;;;48.15;31.98;;;31.90;99.90;;;;;;5025270;28;20064;-70
2023/04/01 08:14:33;;;;;;;44.35;29.30;;;31.90;99.90;;;;;;5026670;28;20503;-70
2023/04/01 08:17:12;;;;;;;42.47;28.52;;;31.90;99.90;;;;;;5027158;28;20279;-70
2023/04/01 08:20:07;;;;;;;33.70;24.10;;;31.90;99.90;;;;;;5015558;28;20030;-70
2023/04/01 08:22:42;;;;;;;30.15;18.40;;;31.90;99.90;;;;;;5001493;28;20022;-70
2023/04/01 08:25:19;;;;;;;26.60;17.85;;;31.90;99.90;;;;;;5006958;28;20080;-69
2023/04/01 08:27:55;;;;;;;32.13;18.50;;;31.90;99.90;;;;;;5005922;28;20106;-70
2023/04/01 08:30:23;;;;;;;21.45;17.70;;;31.90;99.90;;;;;;4997181;28;20110;-70
2023/04/01 08:32:57;;;;;;;31.30;22.42;;;31.90;99.90;;;;;;4997154;28;20022;-70
2023/04/01 08:35:31;;;;;;;35.47;26.08;;;31.90;99.90;;;;;;4996975;28;20030;-70
2023/04/01 08:38:06;;;;;;;46.42;30.33;;;31.90;99.90;;;;;;4996813;28;20487;-69
2023/04/01 08:40:35;;;;;;;39.28;24.42;;;31.90;99.90;;;;;;4996945;28;20041;-70
2023/04/01 08:43:10;;;;;;;33.55;24.23;;;31.90;99.90;;;;;;4996989;28;20030;-71
2023/04/01 08:46:17;;;;;;;38.92;25.85;;;31.80;99.90;;;;;;4996975;28;20503;-70
2023/04/01 08:48:45;;;;;;;47.72;28.67;;;31.80;99.90;;;;;;4990718;28;20039;-68
2023/04/01 08:51:51;;;;;;;53.13;33.60;;;31.90;99.90;;;;;;4996595;28;20022;-70
2023/04/01 08:54:33;;;;;;;46.83;29.98;;;31.90;99.90;;;;;;5019965;28;20400;-71
2023/04/01 08:56:59;;;;;;;40.33;26.25;;;31.90;99.90;;;;;;5022718;28;20101;-70
2023/04/01 08:59:35;;;;;;;34.58;24.55;;;31.80;99.90;;;;;;5022922;28;20121;-69
2023/04/01 09:02:04;;;;;;;36.90;23.65;;;31.80;99.90;;;;;;5025024;28;20014;-70
2023/04/01 09:05:02;;;;;;;39.05;24.88;;;31.70;99.90;;;;;;5026236;28;20021;-70
2023/04/01 09:07:53;;;;;;;36.65;25.38;;;31.70;99.90;;;;;;5025061;28;20033;-70
2023/04/01 09:10:41;;;;;;;45.93;28.90;;;31.70;99.90;;;;;;5024454;28;20038;-68
2023/04/01 09:13:13;;;;;;;43.70;27.45;;;31.70;99.90;;;;;;5019805;28;20057;-69
2023/04/01 09:15:40;;;;;;;38.45;25.95;;;31.70;99.90;;;;;;5017203;28;20293;-69
2023/04/01 09:18:34;;;;;;;36.67;26.05;;;31.70;99.90;;;;;;5024753;28;20033;-69
2023/04/01 09:21:10;;;;;;;41.40;26.73;;;31.70;99.90;;;;;;5022636;28;20026;-71
2023/04/01 09:23:56;;;;;;;39.55;27.55;;;31.70;99.90;;;;;;5024040;28;20021;-70
2023/04/01 09:26:23;;;;;;;47.70;29.50;;;31.60;99.90;;;;;;5022195;28;20025;-72
2023/04/01 09:29:20;;;;;;;48.95;29.27;;;31.60;99.90;;;;;;5023719;28;20420;-69
2023/04/01 09:31:55;;;;;;;44.08;29.50;;;31.60;99.90;;;;;;5023849;28;20104;-68
2023/04/01 09:34:35;;;;;;;52.15;33.03;;;31.60;99.90;;;;;;5025090;28;20041;-69
2023/04/01 09:37:19;;;;;;;50.85;34.25;;;31.60;99.90;;;;;;5025847;28;20499;-68
2023/04/01 09:40:15;;;;;;;55.22;35.13;;;31.60;99.90;;;;;;5024293;28;20038;-69
2023/04/01 09:42:45;;;;;;;47.03;30.55;;;31.50;99.90;;;;;;5024352;28;20025;-69
2023/04/01 09:45:24;;;;;;;40.25;28.25;;;31.30;99.90;;;;;;5024261;28;20017;-68
2023/04/01 09:48:15;;;;;;;45.75;30.27;;;31.20;99.90;;;;;;5021604;28;20105;-70
2023/04/01 09:50:43;;;;;;;56.95;35.92;;;31.30;99.90;;;;;;5021942;28;20499;-69
2023/04/01 09:53:17;;;;;;;54.85;37.22;;;31.30;99.90;;;;;;5019304;28;20096;-63
2023/04/01 09:56:03;;;;;;;54.67;33.03;;;31.40;99.90;;;;;;5022080;28;20468;-68
2023/04/01 09:58:31;;;;;;;36.53;25.98;;;31.40;99.90;;;;;;5021462;28;20029;-70
2023/04/01 10:01:19;;;;;;;33.35;23.10;;;31.20;99.90;;;;;;5022539;28;20029;-70
2023/04/01 10:03:49;;;;;;;30.63;21.70;;;31.10;99.90;;;;;;5014940;28;20030;-69
2023/04/01 10:06:35;;;;;;;29.27;20.75;;;31.00;99.90;;;;;;5020218;28;20029;-70
2023/04/01 10:09:10;;;;;;;22.73;16.27;;;30.80;99.90;;;;;;5017630;28;20561;-69
2023/04/01 10:11:40;;;;;;;23.67;16.27;;;30.60;99.90;;;;;;5022151;28;20388;-68
2023/04/01 10:14:28;;;;;;;19.27;14.85;;;30.50;99.90;;;;;;5024954;28;20069;-69
2023/04/01 10:17:18;;;;;;;25.33;16.33;;;30.30;99.90;;;;;;5021148;28;20045;-69
2023/04/01 10:20:12;;;;;;;26.77;16.80;;;30.10;99.90;;;;;;5024491;28;20033;-68
2023/04/01 10:23:00;;;;;;;22.98;14.65;;;30.10;99.90;;;;;;5024448;28;20017;-68
2023/04/01 10:25:42;;;;;;;21.80;15.60;;;30.10;99.90;;;;;;5018692;28;20080;-70
2023/04/01 10:28:10;;;;;;;;;;;30.00;99.90;;;;;;5025019;28;20029;-72
2023/04/01 10:31:06;;;;;;;31.00;16.88;;;30.00;99.90;;;;;;5018329;28;19909;-68
2023/04/01 10:33:44;;;;;;;25.45;16.05;;;29.90;99.90;;;;;;5018258;28;20018;-68
2023/04/01 10:36:13;;;;;;;25.52;16.00;;;29.90;99.90;;;;;;5020190;28;20067;-69
2023/04/01 10:39:00;;;;;;;25.83;14.00;;;29.90;99.90;;;;;;5022995;28;20439;-69
2023/04/01 10:41:36;;;;;;;22.08;13.95;;;29.90;99.90;;;;;;5024555;28;20022;-69
2023/04/01 10:44:25;;;;;;;25.65;14.05;;;29.90;99.90;;;;;;5018843;28;20018;-72
2023/04/01 10:47:02;;;;;;;36.15;22.75;;;29.90;99.90;;;;;;5019996;28;20056;-72
2023/04/01 10:49:37;;;;;;;35.75;25.70;;;29.90;99.90;;;;;;5018044;28;20365;-71
2023/04/01 10:52:15;;;;;;;29.33;18.52;;;29.80;99.90;;;;;;5021190;28;20026;-72
2023/04/01 10:54:51;;;;;;;39.90;24.63;;;29.70;99.90;;;;;;5018631;28;20030;-72
2023/04/01 10:57:40;;;;;;;24.48;16.17;;;29.60;99.90;;;;;;5022223;28;20083;-72
2023/04/01 11:00:10;;;;;;;30.33;19.20;;;29.50;99.90;;;;;;5019591;28;20575;-71
2023/04/01 11:03:06;;;;;;;25.50;17.85;;;29.60;99.90;;;;;;5020068;28;20076;-72
2023/04/01 11:06:06;;;;;;;17.13;11.32;;;29.50;99.90;;;;;;5013334;28;20018;-72
2023/04/01 11:08:52;;;;;;;20.35;11.55;;;29.40;99.90;;;;;;5013214;28;20073;-74
2023/04/01 11:11:28;;;;;;;18.67;12.13;;;29.50;99.90;;;;;;5021011;28;20500;-68
2023/04/01 11:14:25;;;;;;;19.13;11.80;;;29.60;99.90;;;;;;5013043;28;20049;-69
2023/04/01 11:17:12;;;;;;;18.35;9.95;;;29.60;99.90;;;;;;5013282;28;20037;-67
2023/04/01 11:19:49;;;;;;;18.65;9.95;;;29.60;99.90;;;;;;5012942;28;20503;-69
2023/04/01 11:22:37;;;;;;;17.23;10.23;;;29.50;99.90;;;;;;5013059;28;20117;-68
2023/04/01 11:25:18;;;;;;;18.08;10.60;;;29.40;99.90;;;;;;5006917;28;20373;-68
2023/04/01 11:28:06;;;;;;;21.45;10.82;;;29.20;99.90;;;;;;4995349;28;20034;-68
2023/04/01 11:30:34;;;;;;;24.33;11.15;;;29.20;99.90;;;;;;4992705;28;20122;-68
2023/04/01 11:33:17;;;;;;;21.85;12.73;;;29.20;99.90;;;;;;4993994;28;20427;-68
2023/04/01 11:36:07;;;;;;;21.67;11.65;;;29.30;99.90;;;;;;5013193;28;20053;-67
2023/04/01 11:38:42;;;;;;;19.92;12.15;;;29.30;99.90;;;;;;5012742;28;20022;-70
2023/04/01 11:41:19;;;;;;;22.67;12.10;;;29.40;99.90;;;;;;5012942;28;20025;-69
2023/04/01 11:44:16;;;;;;;25.40;14.27;;;29.30;99.90;;;;;;5005344;28;20025;-68
2023/04/01 11:46:54;;;;;;;24.50;14.52;;;29.30;99.90;;;;;;5012736;28;20022;-71
2023/04/01 11:49:22;;;;;;;25.50;14.63;;;29.30;99.90;;;;;;5013015;28;20053;-70
2023/04/01 11:52:05;;;;;;;23.38;15.05;;;29.30;99.90;;;;;;5012861;28;20054;-72
2023/04/01 11:54:51;;;;;;;29.13;14.95;;;29.30;99.90;;;;;;5008538;28;20034;-70
2023/04/01 11:57:57;;;;;;;27.38;14.35;;;29.10;99.90;;;;;;5012705;28;20029;-69
2023/04/01 12:00:45;;;;;;;26.08;15.77;;;28.90;99.90;;;;;;5013105;28;20053;-68
2023/04/01 12:03:34;;;;;;;29.48;16.33;;;29.00;99.90;;;;;;5005858;28;20029;-68
2023/04/01 12:06:22;;;;;;;22.95;15.13;;;29.00;99.90;;;;;;5017169;28;20101;-72
2023/04/01 12:09:09;;;;;;;29.92;17.38;;;29.00;99.90;;;;;;5017373;28;20049;-73
2023/04/01 12:11:44;;;;;;;30.83;17.80;;;28.80;99.90;;;;;;5020632;28;20097;-68
2023/04/01 12:14:18;;;;;;;33.88;19.00;;;28.90;99.90;;;;;;5022042;28;20124;-72
2023/04/01 12:16:53;;;;;;;306.80;277.88;;;28.90;99.90;;;;;;5021701;28;20382;-70
2023/04/01 12:19:30;;;;;;;88.50;74.60;;;29.00;99.90;;;;;;5028801;28;20033;-70
2023/04/01 12:21:58;;;;;;;48.05;28.92;;;29.00;99.90;;;;;;5025969;28;20025;-70
2023/04/01 12:24:29;;;;;;;35.42;22.45;;;29.00;99.90;;;;;;5032839;28;20045;-75
2023/04/01 12:27:06;;;;;;;29.38;19.85;;;29.00;99.90;;;;;;5032607;28;20029;-74
2023/04/01 12:29:54;;;;;;;33.70;18.80;;;29.00;99.90;;;;;;5032715;28;20026;-74
2023/04/01 12:32:27;;;;;;;40.65;19.08;;;28.90;99.90;;;;;;5032394;28;20022;-75
2023/04/01 12:35:04;;;;;;;27.55;17.23;;;28.90;99.90;;;;;;5032601;28;20029;-76
2023/04/01 12:37:59;;;;;;;26.48;15.90;;;28.90;99.90;;;;;;5032018;28;20464;-75
2023/04/01 12:40:46;;;;;;;33.30;17.88;;;28.90;99.90;;;;;;5032599;28;20017;-74
2023/04/01 12:43:14;;;;;;;33.50;18.23;;;28.90;99.90;;;;;;5036228;28;20032;-75
2023/04/01 12:45:51;;;;;;;34.50;20.23;;;28.90;99.90;;;;;;5036183;28;20026;-74
2023/04/01 12:48:19;;;;;;;36.95;24.45;;;28.90;99.90;;;;;;5036153;28;20083;-75
2023/04/01 12:51:06;;;;;;;33.38;21.80;;;28.90;99.90;;;;;;5036121;28;20029;-75
2023/04/01 12:53:43;;;;;;;37.58;21.10;;;28.90;99.90;;;;;;5036052;28;20594;-75
2023/04/01 12:56:28;;;;;;;35.70;22.60;;;29.00;99.90;;;;;;5036040;28;20108;-74
2023/04/01 12:59:06;;;;;;;35.58;22.10;;;28.90;99.90;;;;;;5035894;28;20028;-74
2023/04/01 13:02:00;;;;;;;67.05;40.42;;;28.90;99.90;;;;;;5035847;28;20112;-74
2023/04/01 13:04:31;;;;;;;89.60;54.33;;;28.90;99.90;;;;;;5035858;28;20025;-74